createdAt,value
2022-10-23T00:01:45.545Z,11.67
2022-10-23T00:04:19.695Z,11.68
2022-10-23T00:06:48.892Z,11.70
2022-10-23T00:09:20.486Z,11.72
2022-10-23T00:11:50.440Z,11.77
2022-10-23T00:14:21.804Z,11.84
2022-10-23T00:16:50.019Z,11.92
2022-10-23T00:19:18.470Z,11.99
2022-10-23T00:21:46.418Z,12.05
2022-10-23T00:24:14.461Z,12.12
2022-10-23T00:26:42.696Z,12.16
2022-10-23T00:29:11.519Z,12.20
2022-10-23T00:31:39.746Z,12.24
2022-10-23T00:34:08.761Z,12.27
2022-10-23T00:36:37.607Z,12.30
2022-10-23T00:39:06.346Z,12.34
2022-10-23T00:41:35.171Z,12.35
2022-10-23T00:44:05.328Z,12.39
2022-10-23T00:46:35.088Z,12.40
2022-10-23T00:49:04.728Z,12.40
2022-10-23T00:51:38.618Z,12.40
2022-10-23T00:54:24.982Z,12.39
2022-10-23T00:56:58.545Z,12.39
2022-10-23T00:59:27.491Z,12.40
2022-10-23T01:01:56.206Z,12.39
2022-10-23T01:04:26.245Z,12.38
2022-10-23T01:07:12.723Z,12.36
2022-10-23T01:09:55.038Z,12.33
2022-10-23T01:12:26.408Z,12.30
2022-10-23T01:15:24.539Z,12.29
2022-10-23T01:18:00.084Z,12.26
2022-10-23T01:21:10.899Z,12.23
2022-10-23T01:23:41.368Z,12.19
2022-10-23T01:26:46.360Z,12.15
2022-10-23T01:29:24.800Z,12.13
2022-10-23T01:32:15.050Z,12.09
2022-10-23T01:35:14.216Z,12.05
2022-10-23T01:37:51.631Z,12.03
2022-10-23T01:41:02.248Z,12.00
2022-10-23T01:43:46.486Z,11.96
2022-10-23T01:46:18.081Z,11.94
2022-10-23T01:48:52.980Z,11.91
2022-10-23T01:51:25.660Z,11.89
2022-10-23T01:53:58.468Z,11.86
2022-10-23T01:56:32.382Z,11.84
2022-10-23T01:59:05.741Z,11.82
2022-10-23T02:01:41.847Z,11.79
2022-10-23T02:04:15.598Z,11.76
2022-10-23T02:06:43.780Z,11.73
2022-10-23T02:09:11.893Z,11.71
2022-10-23T02:11:51.024Z,11.68
2022-10-23T02:14:46.459Z,11.66
2022-10-23T02:17:34.877Z,11.66
2022-10-23T02:20:25.445Z,11.64
2022-10-23T02:23:22.652Z,11.65
2022-10-23T02:25:59.790Z,11.64
2022-10-23T02:28:34.843Z,11.63
2022-10-23T02:31:08.750Z,11.62
2022-10-23T02:33:36.975Z,11.63
2022-10-23T02:36:05.261Z,11.65
2022-10-23T02:38:40.619Z,11.66
2022-10-23T02:41:33.561Z,11.68
2022-10-23T02:44:07.195Z,11.69
2022-10-23T02:47:18.463Z,11.70
2022-10-23T02:49:55.691Z,11.71
2022-10-23T02:52:54.815Z,11.72
2022-10-23T02:55:48.052Z,11.71
2022-10-23T02:58:40.963Z,11.71
2022-10-23T03:01:16.496Z,11.72
2022-10-23T03:03:57.609Z,11.71
2022-10-23T03:06:26.705Z,11.70
2022-10-23T03:09:00.104Z,11.70
2022-10-23T03:11:28.360Z,11.70
2022-10-23T03:13:56.608Z,11.70
2022-10-23T03:16:24.726Z,11.70
2022-10-23T03:18:55.080Z,11.70
2022-10-23T03:21:23.585Z,11.71
2022-10-23T03:23:53.784Z,11.71
2022-10-23T03:26:28.451Z,11.71
2022-10-23T03:28:56.424Z,11.72
2022-10-23T03:31:24.743Z,11.72
2022-10-23T03:33:56.300Z,11.73
2022-10-23T03:36:24.733Z,11.73
2022-10-23T03:38:53.647Z,11.72
2022-10-23T03:41:22.091Z,11.72
2022-10-23T03:43:49.979Z,11.71
2022-10-23T03:46:17.975Z,11.69
2022-10-23T03:48:45.962Z,11.67
2022-10-23T03:51:13.900Z,11.65
2022-10-23T03:53:42.054Z,11.63
2022-10-23T03:56:10.024Z,11.62
2022-10-23T03:58:37.855Z,11.60
2022-10-23T04:01:06.088Z,11.61
2022-10-23T04:03:34.229Z,11.60
2022-10-23T04:06:02.381Z,11.60
2022-10-23T04:08:30.459Z,11.60
2022-10-23T04:10:58.881Z,11.60
2022-10-23T04:13:43.194Z,11.59
2022-10-23T04:16:11.583Z,11.59
2022-10-23T04:18:43.208Z,11.60
2022-10-23T04:21:12.193Z,11.60
2022-10-23T04:23:40.552Z,11.60
2022-10-23T04:26:17.061Z,11.60
2022-10-23T04:28:44.961Z,11.60
2022-10-23T04:31:13.029Z,11.60
2022-10-23T04:33:44.527Z,11.60
2022-10-23T04:36:26.351Z,11.59
2022-10-23T04:38:54.352Z,11.59
2022-10-23T04:41:22.534Z,11.59
2022-10-23T04:43:50.494Z,11.58
2022-10-23T04:46:18.663Z,11.58
2022-10-23T04:48:48.784Z,11.58
2022-10-23T04:51:28.671Z,11.58
2022-10-23T04:54:05.732Z,11.57
2022-10-23T04:56:58.484Z,11.57
2022-10-23T04:59:28.407Z,11.56
2022-10-23T05:01:57.219Z,11.56
2022-10-23T05:04:25.327Z,11.55
2022-10-23T05:07:11.798Z,11.55
2022-10-23T05:10:06.613Z,11.54
2022-10-23T05:12:42.503Z,11.55
2022-10-23T05:15:10.785Z,11.56
2022-10-23T05:17:43.242Z,11.57
2022-10-23T05:20:21.649Z,11.58
2022-10-23T05:22:51.382Z,11.58
2022-10-23T05:25:21.977Z,11.58
2022-10-23T05:27:53.972Z,11.59
2022-10-23T05:30:22.708Z,11.59
2022-10-23T05:32:50.848Z,11.60
2022-10-23T05:35:23.507Z,11.61
2022-10-23T05:37:55.475Z,11.62
2022-10-23T05:40:26.374Z,11.64
2022-10-23T05:43:00.022Z,11.65
2022-10-23T05:45:48.856Z,11.66
2022-10-23T05:48:36.026Z,11.68
2022-10-23T05:51:11.648Z,11.71
2022-10-23T05:53:50.811Z,11.75
2022-10-23T05:56:33.220Z,11.78
2022-10-23T05:59:10.982Z,11.81
2022-10-23T06:01:53.725Z,11.84
2022-10-23T06:04:40.516Z,11.87
2022-10-23T06:07:17.182Z,11.88
2022-10-23T06:09:46.095Z,11.89
2022-10-23T06:12:14.266Z,11.90
2022-10-23T06:14:43.840Z,11.91
2022-10-23T06:17:12.141Z,11.93
2022-10-23T06:19:46.712Z,11.95
2022-10-23T06:22:17.057Z,11.98
2022-10-23T06:24:55.303Z,12.00
2022-10-23T06:27:26.520Z,12.03
2022-10-23T06:29:55.970Z,12.06
2022-10-23T06:32:23.886Z,12.07
2022-10-23T06:35:05.731Z,12.12
2022-10-23T06:37:34.453Z,12.16
2022-10-23T06:40:19.161Z,12.24
2022-10-23T06:42:59.033Z,12.32
2022-10-23T06:45:47.221Z,12.39
2022-10-23T06:48:16.460Z,12.46
2022-10-23T06:50:57.032Z,12.53
2022-10-23T06:53:35.923Z,12.59
2022-10-23T06:56:10.596Z,12.66
2022-10-23T06:58:39.721Z,12.72
2022-10-23T07:01:14.179Z,12.77
2022-10-23T07:03:43.219Z,12.82
2022-10-23T07:06:11.813Z,12.88
2022-10-23T07:08:40.294Z,12.94
2022-10-23T07:11:28.928Z,13.01
2022-10-23T07:13:57.195Z,13.07
2022-10-23T07:16:25.279Z,13.16
2022-10-23T07:18:59.578Z,13.27
2022-10-23T07:21:37.097Z,13.37
2022-10-23T07:24:20.551Z,13.49
2022-10-23T07:29:17.079Z,13.69
2022-10-23T07:31:45.147Z,13.83
2022-10-23T07:34:32.207Z,13.96
2022-10-23T07:37:32.260Z,14.05
2022-10-23T07:40:02.998Z,14.13
2022-10-23T07:42:32.099Z,14.16
2022-10-23T07:45:00.102Z,14.19
2022-10-23T07:47:29.600Z,14.19
2022-10-23T07:49:57.584Z,14.18
2022-10-23T07:52:28.783Z,14.18
2022-10-23T07:55:19.061Z,14.17
2022-10-23T07:58:01.291Z,14.16
2022-10-23T08:00:45.527Z,14.14
2022-10-23T08:03:19.316Z,14.12
2022-10-23T08:05:47.807Z,14.12
2022-10-23T08:08:15.793Z,14.14
2022-10-23T08:10:47.952Z,14.16
2022-10-23T08:13:20.951Z,14.17
2022-10-23T08:15:56.928Z,14.20
2022-10-23T08:18:51.635Z,14.25
2022-10-23T08:21:20.222Z,14.28
2022-10-23T08:23:49.729Z,14.32
2022-10-23T08:26:18.787Z,14.36
2022-10-23T08:28:46.728Z,14.40
2022-10-23T08:31:16.824Z,14.45
2022-10-23T08:33:56.269Z,14.49
2022-10-23T08:36:28.906Z,14.52
2022-10-23T08:38:58.433Z,14.54
2022-10-23T08:41:35.451Z,14.55
2022-10-23T08:44:18.546Z,14.58
2022-10-23T08:47:00.606Z,14.64
2022-10-23T08:49:53.950Z,14.71
2022-10-23T08:52:30.142Z,14.77
2022-10-23T08:55:19.936Z,14.82
2022-10-23T08:57:56.787Z,14.87
2022-10-23T09:00:24.882Z,14.92
2022-10-23T09:02:54.234Z,14.98
2022-10-23T09:05:30.750Z,15.06
2022-10-23T09:08:55.977Z,15.17
2022-10-23T09:11:39.186Z,15.26
2022-10-23T09:14:31.355Z,15.33
2022-10-23T09:17:22.427Z,15.44
2022-10-23T09:20:00.409Z,15.48
2022-10-23T09:22:29.512Z,15.52
2022-10-23T09:24:57.500Z,15.57
2022-10-23T09:27:25.504Z,15.60
2022-10-23T09:29:55.918Z,15.66
2022-10-23T09:32:38.285Z,15.80
2022-10-23T09:35:07.303Z,15.99
2022-10-23T09:37:37.494Z,16.21
2022-10-23T09:40:05.600Z,16.51
2022-10-23T09:42:33.662Z,16.81
2022-10-23T09:45:01.930Z,17.11
2022-10-23T09:47:31.645Z,17.38
2022-10-23T09:49:59.813Z,17.63
2022-10-23T09:52:39.065Z,17.89
2022-10-23T09:55:23.892Z,18.04
2022-10-23T09:57:54.041Z,18.22
2022-10-23T10:00:25.664Z,18.43
2022-10-23T10:03:00.191Z,18.59
2022-10-23T10:05:55.368Z,18.81
2022-10-23T10:08:40.698Z,19.07
2022-10-23T10:11:20.723Z,19.19
2022-10-23T10:14:04.021Z,19.29
2022-10-23T10:16:50.648Z,19.50
2022-10-23T10:19:44.298Z,19.73
2022-10-23T10:22:33.584Z,19.96
2022-10-23T10:25:18.590Z,20.03
2022-10-23T10:27:58.681Z,20.04
2022-10-23T10:30:51.573Z,19.91
2022-10-23T10:33:29.014Z,19.70
2022-10-23T10:36:23.823Z,19.52
2022-10-23T10:38:57.139Z,19.30
2022-10-23T10:41:35.928Z,19.09
2022-10-23T10:44:31.342Z,19.09
2022-10-23T10:47:10.948Z,19.35
2022-10-23T10:49:51.837Z,19.61
2022-10-23T10:52:57.898Z,19.77
2022-10-23T10:55:38.880Z,19.88
2022-10-23T10:58:17.090Z,20.11
2022-10-23T11:00:50.864Z,20.30
2022-10-23T11:03:21.845Z,20.38
2022-10-23T11:05:51.743Z,20.29
2022-10-23T11:08:28.085Z,20.19
2022-10-23T11:11:01.605Z,20.05
2022-10-23T11:13:37.789Z,19.90
2022-10-23T11:16:18.747Z,19.78
2022-10-23T11:19:01.025Z,19.67
2022-10-23T11:21:47.739Z,19.68
2022-10-23T11:24:42.186Z,19.77
2022-10-23T11:27:33.113Z,19.82
2022-10-23T11:30:12.261Z,19.75
2022-10-23T11:32:55.625Z,19.64
2022-10-23T11:36:01.341Z,19.57
2022-10-23T11:38:35.686Z,19.52
2022-10-23T11:41:27.224Z,19.51
2022-10-23T11:43:58.384Z,19.62
2022-10-23T11:46:26.367Z,19.84
2022-10-23T11:48:56.505Z,20.08
2022-10-23T11:51:36.200Z,20.34
2022-10-23T11:54:22.645Z,20.67
2022-10-23T11:56:56.226Z,21.04
2022-10-23T11:59:33.917Z,21.29
2022-10-23T12:02:19.315Z,21.37
2022-10-23T12:04:52.233Z,21.25
2022-10-23T12:07:35.354Z,21.12
2022-10-23T12:10:26.702Z,20.98
2022-10-23T12:13:04.267Z,20.76
2022-10-23T12:15:36.622Z,20.60
2022-10-23T12:18:17.310Z,20.56
2022-10-23T12:20:54.650Z,20.52
2022-10-23T12:23:54.226Z,20.47
2022-10-23T12:26:59.532Z,20.60
2022-10-23T12:29:41.141Z,20.85
2022-10-23T12:32:40.352Z,21.13
2022-10-23T12:35:21.959Z,21.41
2022-10-23T12:38:10.571Z,21.64
2022-10-23T12:40:38.852Z,21.80
2022-10-23T12:43:28.773Z,21.68
2022-10-23T12:46:07.848Z,21.33
2022-10-23T12:48:36.136Z,21.08
2022-10-23T12:51:04.393Z,21.01
2022-10-23T12:53:32.687Z,20.91
2022-10-23T12:56:03.985Z,20.79
2022-10-23T12:58:35.052Z,20.65
2022-10-23T13:01:07.186Z,20.42
2022-10-23T13:03:36.188Z,20.32
2022-10-23T13:06:06.899Z,20.36
2022-10-23T13:08:41.261Z,20.43
2022-10-23T13:11:28.489Z,20.47
2022-10-23T13:13:58.340Z,20.57
2022-10-23T13:16:26.935Z,20.71
2022-10-23T13:18:54.954Z,20.83
2022-10-23T13:21:28.815Z,20.91
2022-10-23T13:23:57.210Z,20.99
2022-10-23T13:26:45.324Z,21.09
2022-10-23T13:29:34.450Z,21.17
2022-10-23T13:32:13.092Z,21.22
2022-10-23T13:35:03.623Z,21.26
2022-10-23T13:37:38.576Z,21.29
2022-10-23T13:40:23.309Z,21.27
2022-10-23T13:42:54.148Z,21.26
2022-10-23T13:45:24.746Z,21.34
2022-10-23T13:47:53.386Z,21.38
2022-10-23T13:50:21.335Z,21.36
2022-10-23T13:52:49.486Z,21.33
2022-10-23T13:55:23.202Z,21.31
2022-10-23T13:57:51.437Z,21.26
2022-10-23T14:00:19.932Z,21.24
2022-10-23T14:02:47.979Z,21.23
2022-10-23T14:05:16.294Z,21.18
2022-10-23T14:07:44.904Z,21.09
2022-10-23T14:10:13.445Z,21.00
2022-10-23T14:12:43.283Z,20.90
2022-10-23T14:15:12.232Z,20.76
2022-10-23T14:17:40.595Z,20.67
2022-10-23T14:20:09.358Z,20.59
2022-10-23T14:22:37.663Z,20.43
2022-10-23T14:25:06.016Z,20.27
2022-10-23T14:27:34.140Z,20.13
2022-10-23T14:30:02.401Z,19.97
2022-10-23T14:32:30.753Z,19.79
2022-10-23T14:34:58.788Z,19.64
2022-10-23T14:37:26.762Z,19.51
2022-10-23T14:39:54.974Z,19.37
2022-10-23T14:42:31.702Z,19.23
2022-10-23T14:46:03.034Z,18.99
2022-10-23T14:49:55.640Z,18.60
2022-10-23T14:54:05.764Z,18.21
2022-10-23T14:57:51.869Z,17.88
2022-10-23T15:01:45.681Z,17.52
2022-10-23T15:16:56.753Z,16.23
2022-10-23T15:20:38.263Z,15.89
2022-10-23T15:28:24.422Z,15.20
2022-10-23T15:31:50.017Z,14.93
2022-10-23T15:34:21.263Z,14.72
2022-10-23T15:36:52.569Z,14.56
2022-10-23T15:39:23.723Z,14.42
2022-10-23T15:41:55.153Z,14.28
2022-10-23T15:44:25.724Z,14.16
2022-10-23T15:46:54.076Z,14.05
2022-10-23T15:49:22.033Z,13.94
2022-10-23T15:51:51.643Z,13.83
2022-10-23T15:54:20.812Z,13.72
2022-10-23T15:56:51.388Z,13.62
2022-10-23T15:59:22.443Z,13.52
2022-10-23T16:01:51.091Z,13.40
2022-10-23T16:04:19.349Z,13.31
2022-10-23T16:06:48.094Z,13.19
2022-10-23T16:09:17.127Z,13.08
2022-10-23T16:11:45.445Z,12.98
2022-10-23T16:14:15.872Z,12.89
2022-10-23T16:16:44.437Z,12.81
2022-10-23T16:19:12.791Z,12.73
2022-10-23T16:21:42.237Z,12.65
2022-10-23T16:24:10.763Z,12.58
2022-10-23T16:26:39.269Z,12.50
2022-10-23T16:29:09.546Z,12.41
2022-10-23T16:31:37.855Z,12.33
2022-10-23T16:34:06.168Z,12.25
2022-10-23T16:36:35.348Z,12.16
2022-10-23T16:39:18.499Z,12.07
2022-10-23T16:42:06.057Z,11.97
2022-10-23T16:44:52.026Z,11.89
2022-10-23T16:47:20.299Z,11.81
2022-10-23T16:49:49.561Z,11.72
2022-10-23T16:52:17.830Z,11.64
2022-10-23T16:54:45.916Z,11.57
2022-10-23T16:57:14.803Z,11.51
2022-10-23T16:59:44.093Z,11.44
2022-10-23T17:02:12.897Z,11.37
2022-10-23T17:04:41.242Z,11.30
2022-10-23T17:07:09.402Z,11.23
2022-10-23T17:09:38.429Z,11.15
2022-10-23T17:12:10.438Z,11.08
2022-10-23T17:14:38.868Z,10.99
2022-10-23T17:17:09.821Z,10.95
2022-10-23T17:19:46.053Z,10.89
2022-10-23T17:22:17.235Z,10.83
2022-10-23T17:24:51.461Z,10.78
2022-10-23T17:27:21.792Z,10.72
2022-10-23T17:29:50.026Z,10.64
2022-10-23T17:32:18.712Z,10.61
2022-10-23T17:34:46.840Z,10.55
2022-10-23T17:37:15.315Z,10.48
2022-10-23T17:39:43.911Z,10.44
2022-10-23T17:42:11.947Z,10.37
2022-10-23T17:44:39.977Z,10.32
2022-10-23T17:47:08.022Z,10.27
2022-10-23T17:49:36.330Z,10.22
2022-10-23T17:52:04.924Z,10.18
2022-10-23T17:54:32.927Z,10.12
2022-10-23T17:57:01.047Z,10.08
2022-10-23T17:59:29.043Z,10.03
2022-10-23T18:01:59.607Z,9.97
2022-10-23T18:04:27.696Z,9.92
2022-10-23T18:06:55.743Z,9.86
2022-10-23T18:09:23.761Z,9.81
2022-10-23T18:11:52.946Z,9.76
2022-10-23T18:14:22.288Z,9.71
2022-10-23T18:16:52.649Z,9.66
2022-10-23T18:19:20.932Z,9.62
2022-10-23T18:21:50.005Z,9.59
2022-10-23T18:24:18.571Z,9.56
2022-10-23T18:26:48.340Z,9.54
2022-10-23T18:29:17.568Z,9.51
2022-10-23T18:31:48.438Z,9.48
2022-10-23T18:34:20.527Z,9.45
2022-10-23T18:36:49.752Z,9.42
2022-10-23T18:39:22.748Z,9.38
2022-10-23T18:41:53.804Z,9.34
2022-10-23T18:44:24.157Z,9.31
2022-10-23T18:46:52.519Z,9.26
2022-10-23T18:49:20.844Z,9.24
2022-10-23T18:51:49.954Z,9.20
2022-10-23T18:54:21.321Z,9.17
2022-10-23T18:56:50.224Z,9.13
2022-10-23T18:59:20.352Z,9.08
2022-10-23T19:01:50.473Z,9.04
2022-10-23T19:04:24.687Z,9.01
2022-10-23T19:06:56.209Z,8.98
2022-10-23T19:09:24.841Z,8.95
2022-10-23T19:11:57.048Z,8.94
2022-10-23T19:14:28.066Z,8.90
2022-10-23T19:17:09.814Z,8.84
2022-10-23T19:19:51.273Z,8.82
2022-10-23T19:22:19.890Z,8.79
2022-10-23T19:25:01.660Z,8.75
2022-10-23T19:27:32.694Z,8.73
2022-10-23T19:30:04.504Z,8.71
2022-10-23T19:32:33.755Z,8.69
2022-10-23T19:35:01.986Z,8.65
2022-10-23T19:37:34.017Z,8.61
2022-10-23T19:40:06.692Z,8.58
2022-10-23T19:42:39.332Z,8.56
2022-10-23T19:45:10.921Z,8.54
2022-10-23T19:47:39.966Z,8.52
2022-10-23T19:50:09.531Z,8.49
2022-10-23T19:52:38.107Z,8.46
2022-10-23T19:55:07.956Z,8.43
2022-10-23T19:57:37.256Z,8.41
2022-10-23T20:00:07.778Z,8.39
2022-10-23T20:02:39.145Z,8.39
2022-10-23T20:05:09.100Z,8.39
2022-10-23T20:07:40.424Z,8.38
2022-10-23T20:10:10.134Z,8.37
2022-10-23T20:12:38.268Z,8.34
2022-10-23T20:15:07.351Z,8.30
2022-10-23T20:17:38.395Z,8.26
2022-10-23T20:20:06.977Z,8.23
2022-10-23T20:22:35.049Z,8.22
2022-10-23T20:25:03.964Z,8.20
2022-10-23T20:27:32.773Z,8.16
2022-10-23T20:30:00.734Z,8.13
2022-10-23T20:32:28.845Z,8.09
2022-10-23T20:34:57.379Z,8.04
2022-10-23T20:37:25.510Z,8.03
2022-10-23T20:39:55.366Z,8.01
2022-10-23T20:42:23.566Z,7.98
2022-10-23T20:44:51.580Z,7.93
2022-10-23T20:47:19.577Z,7.88
2022-10-23T20:49:47.886Z,7.84
2022-10-23T20:52:15.921Z,7.80
2022-10-23T20:54:43.916Z,7.77
2022-10-23T20:57:11.835Z,7.71
2022-10-23T20:59:39.754Z,7.67
2022-10-23T21:02:07.979Z,7.65
2022-10-23T21:04:36.143Z,7.62
2022-10-23T21:07:09.827Z,7.57
2022-10-23T21:09:40.338Z,7.53
2022-10-23T21:12:09.299Z,7.52
2022-10-23T21:14:37.707Z,7.49
2022-10-23T21:17:05.719Z,7.46
2022-10-23T21:19:33.832Z,7.42
2022-10-23T21:22:02.017Z,7.38
2022-10-23T21:24:30.721Z,7.33
2022-10-23T21:26:58.694Z,7.28
2022-10-23T21:29:26.750Z,7.23
2022-10-23T21:31:57.931Z,7.19
2022-10-23T21:34:27.413Z,7.15
2022-10-23T21:39:44.643Z,7.09
2022-10-23T21:42:14.761Z,7.06
2022-10-23T21:44:43.270Z,7.03
2022-10-23T21:47:11.759Z,7.02
2022-10-23T21:49:39.811Z,7.00
2022-10-23T21:52:07.886Z,6.96
2022-10-23T21:54:36.128Z,6.92
2022-10-23T21:57:04.439Z,6.87
2022-10-23T21:59:35.966Z,6.83
2022-10-23T22:02:04.819Z,6.80
2022-10-23T22:04:33.002Z,6.76
2022-10-23T22:07:03.037Z,6.74
2022-10-23T22:09:32.313Z,6.72
2022-10-23T22:12:00.939Z,6.72
2022-10-23T22:14:29.063Z,6.69
2022-10-23T22:16:57.497Z,6.66
2022-10-23T22:19:26.627Z,6.62
2022-10-23T22:21:55.254Z,6.60
2022-10-23T22:24:24.027Z,6.58
2022-10-23T22:26:55.903Z,6.55
2022-10-23T22:29:26.803Z,6.51
2022-10-23T22:31:55.797Z,6.48
2022-10-23T22:34:48.419Z,6.46
2022-10-23T22:37:14.401Z,6.41
2022-10-23T22:39:42.647Z,6.38
2022-10-23T22:42:11.149Z,6.34
2022-10-23T22:44:39.182Z,6.34
2022-10-23T22:47:07.249Z,6.31
2022-10-23T22:49:35.331Z,6.30
2022-10-23T22:52:03.367Z,6.29
2022-10-23T22:54:31.725Z,6.28
2022-10-23T22:56:59.908Z,6.26
2022-10-23T22:59:27.857Z,6.22
2022-10-23T23:01:56.303Z,6.19
2022-10-23T23:04:39.826Z,6.17
2022-10-23T23:07:10.915Z,6.15
2022-10-23T23:09:40.950Z,6.13
2022-10-23T23:12:10.572Z,6.11
2022-10-23T23:14:39.188Z,6.09
2022-10-23T23:17:08.449Z,6.07
2022-10-23T23:19:37.144Z,6.04
2022-10-23T23:22:05.291Z,6.02
2022-10-23T23:24:33.731Z,5.99
2022-10-23T23:27:01.990Z,5.98
2022-10-23T23:29:30.123Z,5.97
2022-10-23T23:31:58.512Z,5.96
2022-10-23T23:34:26.594Z,5.96
2022-10-23T23:36:54.627Z,5.95
2022-10-23T23:39:22.824Z,5.94
2022-10-23T23:41:50.800Z,5.95
2022-10-23T23:44:18.900Z,5.95
2022-10-23T23:46:46.913Z,5.94
2022-10-23T23:49:14.923Z,5.92
2022-10-23T23:51:43.208Z,5.89
2022-10-23T23:54:11.167Z,5.86
2022-10-23T23:56:39.561Z,5.83
2022-10-23T23:59:07.757Z,5.79
